createdAt,value
2019-01-24T00:00:25.001Z,48.50
2019-01-24T00:01:25.000Z,46.90
2019-01-24T00:02:24.986Z,48.50
2019-01-24T00:03:24.962Z,47.40
2019-01-24T00:04:24.976Z,44.30
2019-01-24T00:05:24.955Z,45.60
2019-01-24T00:06:24.935Z,45.20
2019-01-24T00:07:24.930Z,46.50
2019-01-24T00:08:24.909Z,46.90
2019-01-24T00:09:24.905Z,47.40
2019-01-24T00:10:24.916Z,45.80
2019-01-24T00:11:24.885Z,46.90
2019-01-24T00:12:24.886Z,46.80
2019-01-24T00:13:24.870Z,46.60
2019-01-24T00:14:24.874Z,48.70
2019-01-24T00:15:24.858Z,47.50
2019-01-24T00:16:24.868Z,48.00
2019-01-24T00:17:24.844Z,46.40
2019-01-24T00:18:24.821Z,47.10
2019-01-24T00:19:24.825Z,47.90
2019-01-24T00:20:24.815Z,48.50
2019-01-24T00:21:24.999Z,47.30
2019-01-24T00:22:24.778Z,47.30
2019-01-24T00:23:24.788Z,48.40
2019-01-24T00:24:24.964Z,47.80
2019-01-24T00:25:24.776Z,48.70
2019-01-24T00:26:24.754Z,47.30
2019-01-24T00:27:24.749Z,46.70
2019-01-24T00:28:24.748Z,48.20
2019-01-24T00:29:24.732Z,50.30
2019-01-24T00:30:24.910Z,49.10
2019-01-24T00:31:24.714Z,48.20
2019-01-24T00:32:24.698Z,48.60
2019-01-24T00:33:24.674Z,48.60
2019-01-24T00:34:24.668Z,47.40
2019-01-24T00:35:24.673Z,48.90
2019-01-24T00:36:24.643Z,48.30
2019-01-24T00:37:24.648Z,48.40
2019-01-24T00:38:24.644Z,47.80
2019-01-24T00:39:24.618Z,49.60
2019-01-24T00:40:24.608Z,48.30
2019-01-24T00:41:24.613Z,49.80
2019-01-24T00:42:24.797Z,48.80
2019-01-24T00:43:24.601Z,49.80
2019-01-24T00:44:24.572Z,47.60
2019-01-24T00:45:24.559Z,50.00
2019-01-24T00:46:24.559Z,48.10
2019-01-24T00:47:24.742Z,49.90
2019-01-24T00:48:24.536Z,48.50
2019-01-24T00:49:24.546Z,49.50
2019-01-24T00:50:24.517Z,50.10
2019-01-24T00:51:24.523Z,49.30
2019-01-24T00:52:24.500Z,50.80
2019-01-24T00:53:24.502Z,50.20
2019-01-24T00:54:24.501Z,48.40
2019-01-24T00:55:24.496Z,49.10
2019-01-24T00:56:24.658Z,49.00
2019-01-24T00:57:24.452Z,49.40
2019-01-24T00:58:24.443Z,48.00
2019-01-24T00:59:24.451Z,48.10
2019-01-24T01:00:24.650Z,49.20
2019-01-24T01:01:24.425Z,48.80
2019-01-24T01:02:24.611Z,46.90
2019-01-24T01:03:24.595Z,47.00
2019-01-24T01:04:29.655Z,47.60
2019-01-24T01:05:24.578Z,47.00
2019-01-24T01:06:24.381Z,47.30
2019-01-24T01:07:24.553Z,45.30
2019-01-24T01:08:24.361Z,45.80
2019-01-24T01:09:24.343Z,46.10
2019-01-24T01:10:24.333Z,47.70
2019-01-24T01:11:24.332Z,47.40
2019-01-24T01:12:24.333Z,46.30
2019-01-24T01:13:24.307Z,45.50
2019-01-24T01:14:24.509Z,43.50
2019-01-24T01:15:24.287Z,44.90
2019-01-24T01:16:24.276Z,44.60
2019-01-24T01:17:24.263Z,44.80
2019-01-24T01:18:24.262Z,44.20
2019-01-24T01:19:24.255Z,44.80
2019-01-24T01:20:24.240Z,43.70
2019-01-24T01:21:24.231Z,46.70
2019-01-24T01:22:24.250Z,44.30
2019-01-24T01:23:25.584Z,43.40
2019-01-24T01:24:24.405Z,43.00
2019-01-24T01:25:24.198Z,44.10
2019-01-24T01:26:24.183Z,43.50
2019-01-24T01:27:24.174Z,43.20
2019-01-24T01:28:24.359Z,43.60
2019-01-24T01:29:24.154Z,45.10
2019-01-24T01:30:24.152Z,44.00
2019-01-24T01:31:24.150Z,45.20
2019-01-24T01:32:24.139Z,45.90
2019-01-24T01:33:24.123Z,45.50
2019-01-24T01:34:24.122Z,44.90
2019-01-24T01:35:24.101Z,46.30
2019-01-24T01:36:24.091Z,46.10
2019-01-24T01:37:24.082Z,46.50
2019-01-24T01:38:24.081Z,47.60
2019-01-24T01:39:24.268Z,45.60
2019-01-24T01:40:24.075Z,46.00
2019-01-24T01:41:24.041Z,45.70
2019-01-24T01:42:24.042Z,45.60
2019-01-24T01:43:24.035Z,44.50
2019-01-24T01:44:24.031Z,44.70
2019-01-24T01:45:24.008Z,45.20
2019-01-24T01:46:24.193Z,45.70
2019-01-24T01:47:23.991Z,46.40
2019-01-24T01:48:23.982Z,43.80
2019-01-24T01:49:24.188Z,44.80
2019-01-24T01:50:23.979Z,45.90
2019-01-24T01:51:23.962Z,45.90
2019-01-24T01:52:23.940Z,45.50
2019-01-24T01:53:23.931Z,44.60
2019-01-24T01:54:24.131Z,45.00
2019-01-24T01:55:23.909Z,45.90
2019-01-24T01:56:23.914Z,46.30
2019-01-24T01:57:23.893Z,45.60
2019-01-24T01:58:23.895Z,43.90
2019-01-24T01:59:24.087Z,45.20
2019-01-24T02:00:23.882Z,45.80
2019-01-24T02:01:23.863Z,45.40
2019-01-24T02:02:23.847Z,44.30
2019-01-24T02:03:23.848Z,45.20
2019-01-24T02:04:23.846Z,47.70
2019-01-24T02:05:24.018Z,46.20
2019-01-24T02:06:23.815Z,46.00
2019-01-24T02:07:23.793Z,48.20
2019-01-24T02:08:23.800Z,48.90
2019-01-24T02:09:23.787Z,48.80
2019-01-24T02:10:23.767Z,47.60
2019-01-24T02:11:23.774Z,47.40
2019-01-24T02:12:23.748Z,45.60
2019-01-24T02:13:23.761Z,46.40
2019-01-24T02:14:23.746Z,48.40
2019-01-24T02:15:23.743Z,47.90
2019-01-24T02:16:23.728Z,48.00
2019-01-24T02:17:23.709Z,46.40
2019-01-24T02:18:23.701Z,47.10
2019-01-24T02:19:23.681Z,48.50
2019-01-24T02:20:23.684Z,48.20
2019-01-24T02:21:23.667Z,48.30
2019-01-24T02:22:23.652Z,48.40
2019-01-24T02:23:23.643Z,46.80
2019-01-24T02:24:23.635Z,47.10
2019-01-24T02:25:23.627Z,46.10
2019-01-24T02:26:23.619Z,44.70
2019-01-24T02:27:23.618Z,45.60
2019-01-24T02:28:23.600Z,45.50
2019-01-24T02:29:23.591Z,47.80
2019-01-24T02:30:23.591Z,45.60
2019-01-24T02:31:23.569Z,45.00
2019-01-24T02:32:23.561Z,46.20
2019-01-24T02:33:23.562Z,47.70
2019-01-24T02:34:23.560Z,45.40
2019-01-24T02:35:23.532Z,46.40
2019-01-24T02:36:23.518Z,46.20
2019-01-24T02:37:23.524Z,47.40
2019-01-24T02:38:23.500Z,45.80
2019-01-24T02:39:23.515Z,47.00
2019-01-24T02:40:23.478Z,44.90
2019-01-24T02:41:23.487Z,46.20
2019-01-24T02:42:23.469Z,46.30
2019-01-24T02:43:23.465Z,44.90
2019-01-24T02:44:23.449Z,47.10
2019-01-24T02:45:23.439Z,48.00
2019-01-24T02:46:23.447Z,49.10
2019-01-24T02:47:23.410Z,48.20
2019-01-24T02:48:23.419Z,48.20
2019-01-24T02:49:23.396Z,47.00
2019-01-24T02:50:23.383Z,45.10
2019-01-24T02:51:23.373Z,48.10
2019-01-24T02:52:23.365Z,47.60
2019-01-24T02:53:23.359Z,47.20
2019-01-24T02:54:23.369Z,47.10
2019-01-24T02:55:23.353Z,50.20
2019-01-24T02:56:23.326Z,50.20
2019-01-24T02:57:23.533Z,48.20
2019-01-24T02:58:23.314Z,47.50
2019-01-24T02:59:23.291Z,45.90
2019-01-24T03:00:23.298Z,48.50
2019-01-24T03:01:23.306Z,50.50
2019-01-24T03:02:23.278Z,49.90
2019-01-24T03:03:23.263Z,49.80
2019-01-24T03:04:23.245Z,47.80
2019-01-24T03:05:23.435Z,47.30
2019-01-24T03:06:23.250Z,47.80
2019-01-24T03:07:23.232Z,48.70
2019-01-24T03:08:23.206Z,44.20
2019-01-24T03:09:23.200Z,41.40
2019-01-24T03:10:23.187Z,43.90
2019-01-24T03:11:23.175Z,43.90
2019-01-24T03:12:23.392Z,43.00
2019-01-24T03:13:23.172Z,43.60
2019-01-24T03:14:23.162Z,41.90
2019-01-24T03:15:23.164Z,42.20
2019-01-24T03:16:23.347Z,42.70
2019-01-24T03:17:23.126Z,42.60
2019-01-24T03:18:23.125Z,43.80
2019-01-24T03:19:23.111Z,43.50
2019-01-24T03:20:23.119Z,44.10
2019-01-24T03:21:23.092Z,42.10
2019-01-24T03:22:23.285Z,45.10
2019-01-24T03:23:23.091Z,43.90
2019-01-24T03:24:23.067Z,44.60
2019-01-24T03:25:23.254Z,44.10
2019-01-24T03:26:23.044Z,45.70
2019-01-24T03:27:23.239Z,44.80
2019-01-24T03:28:23.033Z,45.30
2019-01-24T03:29:23.213Z,44.80
2019-01-24T03:30:23.021Z,45.50
2019-01-24T03:31:23.007Z,44.00
2019-01-24T03:32:22.984Z,44.60
2019-01-24T03:33:22.972Z,43.30
2019-01-24T03:34:22.977Z,45.60
2019-01-24T03:35:22.955Z,43.80
2019-01-24T03:36:22.959Z,43.10
2019-01-24T03:37:22.935Z,43.40
2019-01-24T03:38:22.925Z,45.50
2019-01-24T03:39:22.922Z,45.00
2019-01-24T03:40:22.906Z,43.50
2019-01-24T03:41:22.900Z,44.90
2019-01-24T03:42:22.897Z,45.30
2019-01-24T03:43:23.092Z,45.60
2019-01-24T03:44:22.888Z,43.70
2019-01-24T03:45:22.880Z,46.90
2019-01-24T03:46:22.859Z,43.20
2019-01-24T03:47:22.868Z,43.00
2019-01-24T03:48:22.834Z,42.70
2019-01-24T03:49:22.828Z,44.80
2019-01-24T03:50:22.818Z,42.80
2019-01-24T03:51:22.803Z,39.50
2019-01-24T03:52:22.808Z,39.10
2019-01-24T03:53:22.801Z,42.00
2019-01-24T03:54:22.990Z,42.40
2019-01-24T03:55:22.768Z,41.10
2019-01-24T03:56:22.753Z,41.50
2019-01-24T03:57:22.754Z,41.10
2019-01-24T03:58:22.739Z,41.30
2019-01-24T03:59:22.742Z,42.80
2019-01-24T04:00:22.719Z,42.00
2019-01-24T04:01:22.712Z,41.20
2019-01-24T04:02:22.703Z,42.90
2019-01-24T04:03:22.942Z,41.90
2019-01-24T04:04:22.692Z,42.40
2019-01-24T04:05:22.676Z,41.30
2019-01-24T04:06:22.663Z,42.00
2019-01-24T04:07:22.662Z,42.50
2019-01-24T04:08:22.662Z,42.20
2019-01-24T04:09:22.630Z,42.20
2019-01-24T04:10:22.617Z,41.80
2019-01-24T04:11:22.608Z,42.20
2019-01-24T04:12:22.600Z,42.10
2019-01-24T04:13:22.619Z,45.10
2019-01-24T04:14:22.585Z,43.50
2019-01-24T04:15:22.579Z,43.70
2019-01-24T04:16:22.559Z,43.90
2019-01-24T04:17:22.762Z,43.90
2019-01-24T04:18:22.540Z,44.30
2019-01-24T04:19:22.539Z,42.50
2019-01-24T04:20:22.537Z,44.00
2019-01-24T04:21:23.426Z,44.00
2019-01-24T04:22:22.500Z,45.10
2019-01-24T04:23:22.496Z,44.20
2019-01-24T04:24:22.707Z,43.00
2019-01-24T04:25:22.471Z,45.90
2019-01-24T04:26:22.473Z,44.50
2019-01-24T04:27:22.448Z,46.00
2019-01-24T04:28:22.644Z,45.50
2019-01-24T04:29:22.651Z,45.40
2019-01-24T04:30:22.438Z,44.50
2019-01-24T04:31:22.411Z,45.00
2019-01-24T04:32:22.605Z,43.60
2019-01-24T04:33:22.413Z,42.80
2019-01-24T04:34:22.390Z,43.20
2019-01-24T04:35:22.384Z,44.50
2019-01-24T04:36:22.377Z,45.80
2019-01-24T04:37:22.369Z,43.10
2019-01-24T04:38:22.366Z,42.80
2019-01-24T04:39:22.330Z,45.20
2019-01-24T04:40:22.339Z,44.10
2019-01-24T04:41:22.329Z,47.30
2019-01-24T04:42:22.530Z,44.60
2019-01-24T04:43:22.320Z,44.80
2019-01-24T04:44:22.286Z,45.10
2019-01-24T04:45:22.288Z,44.20
2019-01-24T04:46:22.277Z,42.20
2019-01-24T04:47:22.472Z,43.90
2019-01-24T04:48:22.247Z,43.90
2019-01-24T04:49:22.234Z,42.60
2019-01-24T04:50:22.231Z,43.50
2019-01-24T04:51:22.227Z,43.90
2019-01-24T04:52:22.231Z,44.70
2019-01-24T04:53:22.218Z,44.80
2019-01-24T04:54:22.199Z,41.80
2019-01-24T04:55:22.174Z,41.60
2019-01-24T04:56:22.386Z,40.10
2019-01-24T04:57:22.193Z,41.90
2019-01-24T04:58:22.168Z,41.80
2019-01-24T04:59:22.354Z,40.30
2019-01-24T05:00:22.137Z,40.70
2019-01-24T05:01:22.116Z,42.50
2019-01-24T05:02:22.118Z,43.80
2019-01-24T05:03:22.103Z,41.70
2019-01-24T05:04:22.090Z,42.80
2019-01-24T05:05:27.707Z,42.40
2019-01-24T05:06:22.073Z,43.20
2019-01-24T05:07:22.267Z,43.40
2019-01-24T05:08:22.062Z,43.80
2019-01-24T05:09:22.044Z,43.10
2019-01-24T05:10:22.259Z,43.10
2019-01-24T05:11:22.043Z,41.30
2019-01-24T05:12:22.022Z,43.30
2019-01-24T05:13:22.042Z,42.70
2019-01-24T05:14:22.046Z,40.60
2019-01-24T05:15:22.008Z,42.50
2019-01-24T05:16:21.994Z,43.50
2019-01-24T05:17:23.464Z,41.50
2019-01-24T05:18:21.961Z,42.10
2019-01-24T05:19:21.956Z,42.60
2019-01-24T05:20:21.946Z,42.80
2019-01-24T05:21:22.139Z,41.00
2019-01-24T05:22:21.920Z,41.80
2019-01-24T05:23:21.915Z,42.70
2019-01-24T05:24:21.920Z,42.70
2019-01-24T05:25:21.922Z,42.30
2019-01-24T05:26:21.888Z,43.70
2019-01-24T05:27:21.886Z,44.70
2019-01-24T05:28:21.866Z,42.20
2019-01-24T05:29:21.860Z,43.40
2019-01-24T05:30:21.861Z,41.50
2019-01-24T05:31:21.843Z,42.50
2019-01-24T05:32:21.835Z,42.20
2019-01-24T05:33:21.817Z,40.50
2019-01-24T05:34:21.815Z,40.60
2019-01-24T05:35:21.804Z,42.90
2019-01-24T05:36:21.798Z,39.90
2019-01-24T05:37:21.788Z,42.30
2019-01-24T05:38:21.776Z,41.50
2019-01-24T05:39:21.780Z,44.00
2019-01-24T05:40:21.770Z,41.50
2019-01-24T05:41:21.766Z,41.90
2019-01-24T05:42:21.743Z,41.30
2019-01-24T05:43:21.733Z,42.00
2019-01-24T05:44:21.728Z,42.20
2019-01-24T05:45:21.714Z,43.30
2019-01-24T05:46:21.717Z,42.00
2019-01-24T05:47:21.696Z,42.70
2019-01-24T05:48:21.691Z,41.30
2019-01-24T05:49:21.675Z,42.10
2019-01-24T05:50:21.678Z,43.90
2019-01-24T05:51:21.658Z,42.00
2019-01-24T05:52:21.853Z,43.60
2019-01-24T05:53:21.643Z,43.20
2019-01-24T05:54:21.840Z,42.60
2019-01-24T05:55:21.638Z,42.00
2019-01-24T05:56:21.815Z,42.90
2019-01-24T05:57:21.614Z,43.50
2019-01-24T05:58:21.604Z,41.40
2019-01-24T05:59:21.593Z,42.00
2019-01-24T06:00:21.589Z,42.00
2019-01-24T06:01:21.573Z,44.10
2019-01-24T06:02:21.767Z,43.80
2019-01-24T06:03:21.555Z,42.00
2019-01-24T06:04:21.544Z,44.80
2019-01-24T06:05:21.543Z,43.40
2019-01-24T06:06:21.536Z,43.80
2019-01-24T06:07:21.521Z,44.40
2019-01-24T06:08:21.526Z,43.20
2019-01-24T06:09:21.511Z,43.40
2019-01-24T06:10:21.491Z,44.30
2019-01-24T06:11:21.514Z,45.40
2019-01-24T06:12:21.682Z,42.00
2019-01-24T06:13:21.478Z,43.20
2019-01-24T06:14:21.453Z,41.60
2019-01-24T06:15:21.446Z,42.80
2019-01-24T06:16:21.446Z,44.30
2019-01-24T06:17:21.429Z,43.30
2019-01-24T06:18:21.422Z,44.50
2019-01-24T06:19:21.412Z,44.00
2019-01-24T06:20:21.419Z,43.40
2019-01-24T06:21:21.399Z,45.40
2019-01-24T06:22:21.392Z,43.00
2019-01-24T06:23:21.384Z,43.90
2019-01-24T06:24:21.379Z,43.70
2019-01-24T06:25:21.361Z,43.90
2019-01-24T06:26:21.559Z,43.50
2019-01-24T06:27:21.345Z,44.00
2019-01-24T06:28:21.331Z,43.90
2019-01-24T06:29:21.323Z,43.80
2019-01-24T06:30:21.315Z,44.00
2019-01-24T06:31:21.314Z,42.70
2019-01-24T06:32:21.300Z,42.80
2019-01-24T06:33:21.301Z,44.40
2019-01-24T06:34:21.281Z,42.30
2019-01-24T06:35:21.289Z,43.90
2019-01-24T06:36:21.265Z,43.70
2019-01-24T06:37:21.270Z,43.00
2019-01-24T06:38:21.251Z,43.40
2019-01-24T06:39:21.238Z,42.30
2019-01-24T06:40:21.243Z,42.70
2019-01-24T06:41:21.244Z,43.60
2019-01-24T06:42:21.212Z,43.80
2019-01-24T06:43:21.202Z,42.80
2019-01-24T06:44:21.205Z,43.20
2019-01-24T06:45:21.180Z,43.80
2019-01-24T06:46:21.414Z,42.60
2019-01-24T06:47:21.170Z,41.00
2019-01-24T06:48:21.185Z,42.60
2019-01-24T06:49:21.180Z,42.40
2019-01-24T06:50:21.142Z,42.20
2019-01-24T06:51:21.126Z,45.10
2019-01-24T06:52:21.130Z,44.60
2019-01-24T06:53:21.128Z,41.70
2019-01-24T06:54:22.451Z,43.00
2019-01-24T06:55:21.301Z,43.90
2019-01-24T06:56:21.083Z,43.10
2019-01-24T06:57:21.076Z,44.60
2019-01-24T06:58:21.068Z,43.40
2019-01-24T06:59:21.066Z,42.90
2019-01-24T07:00:21.251Z,42.20
2019-01-24T07:01:21.240Z,41.30
2019-01-24T07:02:21.234Z,41.50
2019-01-24T07:03:21.018Z,42.50
2019-01-24T07:04:21.015Z,42.70
2019-01-24T07:05:21.002Z,43.50
2019-01-24T07:06:20.992Z,41.90
2019-01-24T07:07:21.180Z,42.20
2019-01-24T07:08:20.987Z,42.50
2019-01-24T07:09:20.972Z,42.10
2019-01-24T07:10:20.951Z,43.10
2019-01-24T07:11:21.150Z,41.60
2019-01-24T07:12:20.940Z,43.00
2019-01-24T07:13:20.931Z,42.50
2019-01-24T07:14:20.926Z,42.20
2019-01-24T07:15:20.911Z,45.40
2019-01-24T07:16:20.915Z,43.80
2019-01-24T07:17:20.902Z,43.70
2019-01-24T07:18:20.887Z,43.30
2019-01-24T07:19:20.886Z,43.10
2019-01-24T07:20:20.892Z,41.40
2019-01-24T07:21:20.871Z,41.30
2019-01-24T07:22:20.875Z,44.00
2019-01-24T07:23:20.839Z,43.20
2019-01-24T07:24:21.496Z,43.50
2019-01-24T07:25:21.031Z,42.60
2019-01-24T07:26:20.818Z,43.50
2019-01-24T07:27:20.820Z,41.60
2019-01-24T07:28:20.803Z,43.30
2019-01-24T07:29:20.784Z,42.50
2019-01-24T07:30:20.770Z,43.20
2019-01-24T07:31:20.767Z,42.70
2019-01-24T07:32:20.758Z,43.00
2019-01-24T07:33:20.757Z,43.30
2019-01-24T07:34:20.747Z,43.50
2019-01-24T07:35:20.764Z,42.80
2019-01-24T07:36:20.723Z,43.60
2019-01-24T07:37:20.712Z,44.30
2019-01-24T07:38:20.719Z,42.60
2019-01-24T07:39:20.700Z,44.10
2019-01-24T07:40:20.679Z,42.00
2019-01-24T07:41:20.676Z,42.80
2019-01-24T07:42:20.686Z,42.40
2019-01-24T07:43:20.650Z,43.30
2019-01-24T07:44:20.644Z,43.00
2019-01-24T07:45:20.632Z,43.70
2019-01-24T07:46:20.833Z,44.00
2019-01-24T07:47:20.622Z,43.90
2019-01-24T07:48:20.610Z,41.40
2019-01-24T07:49:20.813Z,42.10
2019-01-24T07:50:20.796Z,42.70
2019-01-24T07:51:20.581Z,43.10
2019-01-24T07:52:20.576Z,43.30
2019-01-24T07:53:20.561Z,41.90
2019-01-24T07:54:20.768Z,39.40
2019-01-24T07:55:20.547Z,40.90
2019-01-24T07:56:20.740Z,41.50
2019-01-24T07:57:20.537Z,41.90
2019-01-24T07:58:20.734Z,41.00
2019-01-24T07:59:20.506Z,44.20
2019-01-24T08:00:20.731Z,41.60
2019-01-24T08:01:20.514Z,43.30
2019-01-24T08:02:20.476Z,42.60
2019-01-24T08:03:20.468Z,42.60
2019-01-24T08:04:20.462Z,42.00
2019-01-24T08:05:20.452Z,41.10
2019-01-24T08:06:20.446Z,42.90
2019-01-24T08:07:20.433Z,43.30
2019-01-24T08:08:20.440Z,42.70
2019-01-24T08:09:20.419Z,45.50
2019-01-24T08:10:20.411Z,43.70
2019-01-24T08:11:20.601Z,43.70
2019-01-24T08:12:20.386Z,42.50
2019-01-24T08:13:20.377Z,42.50
2019-01-24T08:14:20.381Z,41.90
2019-01-24T08:15:20.361Z,42.60
2019-01-24T08:16:20.360Z,42.50
2019-01-24T08:17:20.545Z,43.40
2019-01-24T08:18:20.329Z,42.80
2019-01-24T08:19:20.343Z,41.20
2019-01-24T08:20:20.538Z,40.80
2019-01-24T08:21:20.332Z,39.90
2019-01-24T08:22:20.309Z,41.00
2019-01-24T08:23:20.484Z,39.20
2019-01-24T08:24:20.277Z,40.00
2019-01-24T08:25:20.272Z,40.20
2019-01-24T08:26:20.465Z,40.80
2019-01-24T08:27:20.261Z,40.00
2019-01-24T08:28:20.252Z,40.20
2019-01-24T08:29:20.230Z,41.70
2019-01-24T08:30:20.227Z,41.40
2019-01-24T08:31:20.212Z,41.00
2019-01-24T08:32:20.210Z,41.20
2019-01-24T08:33:20.214Z,40.80
2019-01-24T08:34:20.384Z,41.80
2019-01-24T08:35:20.176Z,44.10
2019-01-24T08:36:20.179Z,43.50
2019-01-24T08:37:20.169Z,44.60
2019-01-24T08:38:20.157Z,42.90
2019-01-24T08:39:20.151Z,44.90
2019-01-24T08:40:20.160Z,43.40
2019-01-24T08:41:20.125Z,43.80
2019-01-24T08:42:20.122Z,41.20
2019-01-24T08:43:20.099Z,43.60
2019-01-24T08:44:20.097Z,43.30
2019-01-24T08:45:20.079Z,43.90
2019-01-24T08:46:20.289Z,43.20
2019-01-24T08:47:20.089Z,41.40
2019-01-24T08:48:20.051Z,42.90
2019-01-24T08:49:20.045Z,42.80
2019-01-24T08:50:20.028Z,41.10
2019-01-24T08:51:20.035Z,41.60
2019-01-24T08:52:20.402Z,42.90
2019-01-24T08:53:20.028Z,44.90
2019-01-24T08:54:19.991Z,44.30
2019-01-24T08:55:19.994Z,42.20
2019-01-24T08:56:19.986Z,41.40
2019-01-24T08:57:20.173Z,41.10
2019-01-24T08:58:19.950Z,43.00
2019-01-24T08:59:19.944Z,42.50
2019-01-24T09:00:19.945Z,43.40
2019-01-24T09:01:19.930Z,45.40
2019-01-24T09:02:19.915Z,42.90
2019-01-24T09:03:19.916Z,44.20
2019-01-24T09:04:19.903Z,45.60
2019-01-24T09:05:19.887Z,43.40
2019-01-24T09:06:22.687Z,44.70
2019-01-24T09:07:19.871Z,43.80
2019-01-24T09:08:19.861Z,45.80
2019-01-24T09:09:19.870Z,44.90
2019-01-24T09:10:19.838Z,42.60
2019-01-24T09:11:19.847Z,41.90
2019-01-24T09:12:19.820Z,42.80
2019-01-24T09:13:19.813Z,42.70
2019-01-24T09:14:19.801Z,45.20
2019-01-24T09:15:19.807Z,43.90
2019-01-24T09:16:19.780Z,43.50
2019-01-24T09:17:19.979Z,44.70
2019-01-24T09:18:19.761Z,44.90
2019-01-24T09:19:19.959Z,44.90
2019-01-24T09:20:19.743Z,44.80
2019-01-24T09:21:19.742Z,44.20
2019-01-24T09:22:19.727Z,45.60
2019-01-24T09:23:19.924Z,42.90
2019-01-24T09:24:19.718Z,44.30
2019-01-24T09:25:19.695Z,46.20
2019-01-24T09:26:19.690Z,45.90
2019-01-24T09:27:19.688Z,44.80
2019-01-24T09:28:19.671Z,44.90
2019-01-24T09:29:19.877Z,44.70
2019-01-24T09:30:19.680Z,44.30
2019-01-24T09:31:19.851Z,45.80
2019-01-24T09:32:19.646Z,46.40
2019-01-24T09:33:19.621Z,46.60
2019-01-24T09:34:19.622Z,43.60
2019-01-24T09:35:19.611Z,43.90
2019-01-24T09:36:19.594Z,44.50
2019-01-24T09:37:19.603Z,45.60
2019-01-24T09:38:19.789Z,43.60
2019-01-24T09:39:19.573Z,45.60
2019-01-24T09:40:19.773Z,45.10
2019-01-24T09:41:19.557Z,44.10
2019-01-24T09:42:19.544Z,46.20
2019-01-24T09:43:19.521Z,47.60
2019-01-24T09:44:19.526Z,47.50
2019-01-24T09:45:19.518Z,49.00
2019-01-24T09:46:19.510Z,47.00
2019-01-24T09:47:19.496Z,45.90
2019-01-24T09:48:19.488Z,47.00
2019-01-24T09:49:19.478Z,47.90
2019-01-24T09:50:19.677Z,46.50
2019-01-24T09:51:19.654Z,50.20
2019-01-24T09:52:19.464Z,45.80
2019-01-24T09:53:19.443Z,45.60
2019-01-24T09:54:19.435Z,47.10
2019-01-24T09:55:19.420Z,47.70
2019-01-24T09:56:19.427Z,47.80
2019-01-24T09:57:19.412Z,48.10
2019-01-24T09:58:19.402Z,48.40
2019-01-24T09:59:19.589Z,46.00
2019-01-24T10:00:19.583Z,48.70
2019-01-24T10:01:19.558Z,48.20
2019-01-24T10:02:19.554Z,49.20
2019-01-24T10:03:19.338Z,48.80
2019-01-24T10:04:19.539Z,49.70
2019-01-24T10:05:19.327Z,48.00
2019-01-24T10:06:19.314Z,47.50
2019-01-24T10:07:19.306Z,49.70
2019-01-24T10:08:19.521Z,49.90
2019-01-24T10:09:19.503Z,48.90
2019-01-24T10:10:19.491Z,49.50
2019-01-24T10:11:23.443Z,49.90
2019-01-24T10:12:19.252Z,49.50
2019-01-24T10:13:19.249Z,49.10
2019-01-24T10:14:19.244Z,49.90
2019-01-24T10:15:19.245Z,50.40
2019-01-24T10:16:19.232Z,49.70
2019-01-24T10:17:19.428Z,50.00
2019-01-24T10:18:21.675Z,51.30
2019-01-24T10:19:19.225Z,49.30
2019-01-24T10:20:19.189Z,49.20
2019-01-24T10:21:19.378Z,50.30
2019-01-24T10:22:19.175Z,47.90
2019-01-24T10:23:19.160Z,50.00
2019-01-24T10:24:19.159Z,47.60
2019-01-24T10:25:19.135Z,48.20
2019-01-24T10:26:19.150Z,47.80
2019-01-24T10:27:19.121Z,47.60
2019-01-24T10:28:19.663Z,46.10
2019-01-24T10:29:19.110Z,45.80
2019-01-24T10:30:19.298Z,49.40
2019-01-24T10:31:19.101Z,45.40
2019-01-24T10:32:19.090Z,48.10
2019-01-24T10:33:19.077Z,48.30
2019-01-24T10:34:19.267Z,46.50
2019-01-24T10:35:19.061Z,46.50
2019-01-24T10:36:19.038Z,47.80
2019-01-24T10:37:19.048Z,46.10
2019-01-24T10:38:19.227Z,48.10
2019-01-24T10:39:19.032Z,47.60
2019-01-24T10:40:19.045Z,47.70
2019-01-24T10:41:19.014Z,47.20
2019-01-24T10:42:18.997Z,47.60
2019-01-24T10:43:18.978Z,47.60
2019-01-24T10:44:18.966Z,48.30
2019-01-24T10:45:18.970Z,50.30
2019-01-24T10:46:18.961Z,48.90
2019-01-24T10:47:18.950Z,49.60
2019-01-24T10:48:18.944Z,48.40
2019-01-24T10:49:18.942Z,47.50
2019-01-24T10:50:18.940Z,48.00
2019-01-24T10:51:18.903Z,43.90
2019-01-24T10:52:18.927Z,46.70
2019-01-24T10:53:19.104Z,47.00
2019-01-24T10:54:18.900Z,46.80
2019-01-24T10:55:19.095Z,46.30
2019-01-24T10:56:19.072Z,47.60
2019-01-24T10:57:19.068Z,47.20
2019-01-24T10:58:18.852Z,45.20
2019-01-24T10:59:19.037Z,46.00
2019-01-24T11:00:18.856Z,46.90
2019-01-24T11:01:18.831Z,47.20
2019-01-24T11:02:18.830Z,48.40
2019-01-24T11:03:18.823Z,45.90
2019-01-24T11:04:18.801Z,47.90
2019-01-24T11:05:18.791Z,49.20
2019-01-24T11:06:18.971Z,47.50
2019-01-24T11:07:18.988Z,46.10
2019-01-24T11:08:18.751Z,48.40
2019-01-24T11:09:18.759Z,48.20
2019-01-24T11:10:18.741Z,46.90
2019-01-24T11:11:18.727Z,47.00
2019-01-24T11:12:18.731Z,48.30
2019-01-24T11:13:18.710Z,47.00
2019-01-24T11:14:18.700Z,49.60
2019-01-24T11:15:18.908Z,49.10
2019-01-24T11:16:18.695Z,48.50
2019-01-24T11:17:18.676Z,49.60
2019-01-24T11:18:18.683Z,50.60
2019-01-24T11:19:18.669Z,50.50
2019-01-24T11:20:18.646Z,50.10
2019-01-24T11:21:18.654Z,52.00
2019-01-24T11:22:18.830Z,51.00
2019-01-24T11:23:18.623Z,52.40
2019-01-24T11:24:18.621Z,50.90
2019-01-24T11:25:18.807Z,53.60
2019-01-24T11:26:18.798Z,51.60
2019-01-24T11:27:18.600Z,53.10
2019-01-24T11:28:18.919Z,53.80
2019-01-24T11:29:18.568Z,51.90
2019-01-24T11:30:18.556Z,52.50
2019-01-24T11:31:18.546Z,53.40
2019-01-24T11:32:18.536Z,53.90
2019-01-24T11:33:18.754Z,51.80
2019-01-24T11:34:18.532Z,54.40
2019-01-24T11:35:18.514Z,53.20
2019-01-24T11:36:18.507Z,55.50
2019-01-24T11:37:18.701Z,55.60
2019-01-24T11:38:18.496Z,54.90
2019-01-24T11:39:18.693Z,57.00
2019-01-24T11:40:18.685Z,56.50
2019-01-24T11:41:18.458Z,57.50
2019-01-24T11:42:18.466Z,56.10
2019-01-24T11:43:18.643Z,57.70
2019-01-24T11:44:18.648Z,55.50
2019-01-24T11:45:18.433Z,55.90
2019-01-24T11:46:18.411Z,56.70
2019-01-24T11:47:18.408Z,56.00
2019-01-24T11:48:18.398Z,54.90
2019-01-24T11:49:18.404Z,56.50
2019-01-24T11:50:18.381Z,55.70
2019-01-24T11:51:18.370Z,59.00
2019-01-24T11:52:18.383Z,58.40
2019-01-24T11:53:18.357Z,56.20
2019-01-24T11:54:18.363Z,59.90
2019-01-24T11:55:18.341Z,57.70
2019-01-24T11:56:18.327Z,57.30
2019-01-24T11:57:18.323Z,57.20
2019-01-24T11:58:18.323Z,56.00
2019-01-24T11:59:18.298Z,56.70
2019-01-24T12:00:18.297Z,55.50
2019-01-24T12:01:20.024Z,55.00
2019-01-24T12:02:18.280Z,56.70
2019-01-24T12:03:18.282Z,55.70
2019-01-24T12:04:18.281Z,59.60
2019-01-24T12:05:18.252Z,55.90
2019-01-24T12:06:18.266Z,57.70
2019-01-24T12:07:18.453Z,56.60
2019-01-24T12:08:18.423Z,56.30
2019-01-24T12:09:18.246Z,59.50
2019-01-24T12:10:18.213Z,58.40
2019-01-24T12:11:18.403Z,60.60
2019-01-24T12:12:18.188Z,58.10
2019-01-24T12:13:18.388Z,61.60
2019-01-24T12:14:18.377Z,59.70
2019-01-24T12:15:18.172Z,60.10
2019-01-24T12:16:18.146Z,59.40
2019-01-24T12:17:18.152Z,58.60
2019-01-24T12:18:18.135Z,59.90
2019-01-24T12:19:18.115Z,60.50
2019-01-24T12:20:18.124Z,58.90
2019-01-24T12:21:18.113Z,59.20
2019-01-24T12:22:18.091Z,62.70
2019-01-24T12:23:18.089Z,61.20
2019-01-24T12:24:18.074Z,61.10
2019-01-24T12:25:18.076Z,61.10
2019-01-24T12:26:18.260Z,62.90
2019-01-24T12:27:18.044Z,62.40
2019-01-24T12:28:18.055Z,60.40
2019-01-24T12:29:18.254Z,64.00
2019-01-24T12:30:18.022Z,63.00
2019-01-24T12:31:18.013Z,61.60
2019-01-24T12:32:18.006Z,60.80
2019-01-24T12:33:18.199Z,60.00
2019-01-24T12:34:17.988Z,61.50
2019-01-24T12:35:17.987Z,59.40
2019-01-24T12:36:19.439Z,60.80
2019-01-24T12:37:17.972Z,57.70
2019-01-24T12:38:17.957Z,57.60
2019-01-24T12:39:17.944Z,59.20
2019-01-24T12:40:17.937Z,60.50
2019-01-24T12:41:17.944Z,58.80
2019-01-24T12:42:18.140Z,60.00
2019-01-24T12:43:17.923Z,58.60
2019-01-24T12:44:17.910Z,56.60
2019-01-24T12:45:17.908Z,57.70
2019-01-24T12:46:17.890Z,59.00
2019-01-24T12:47:18.085Z,58.40
2019-01-24T12:48:17.891Z,57.10
2019-01-24T12:49:17.868Z,56.20
2019-01-24T12:50:17.842Z,55.90
2019-01-24T12:51:17.897Z,55.40
2019-01-24T12:52:17.843Z,55.40